sensor_id;sensor_type;location;lat;lon;timestamp;P1;durP1;ratioP1;P2;durP2;ratioP2
37049;SDS011;22958;51.232;6.826;2023-05-06T00:01:01;86.10;;;38.47;;
37049;SDS011;22958;51.232;6.826;2023-05-06T00:03:27;87.03;;;40.20;;
37049;SDS011;22958;51.232;6.826;2023-05-06T00:05:52;86.10;;;40.17;;
37049;SDS011;22958;51.232;6.826;2023-05-06T00:08:18;91.17;;;40.30;;
37049;SDS011;22958;51.232;6.826;2023-05-06T00:10:44;88.27;;;38.53;;
37049;SDS011;22958;51.232;6.826;2023-05-06T00:13:09;85.80;;;40.00;;
37049;SDS011;22958;51.232;6.826;2023-05-06T00:15:35;81.67;;;39.70;;
37049;SDS011;22958;51.232;6.826;2023-05-06T00:18:01;79.67;;;37.53;;
37049;SDS011;22958;51.232;6.826;2023-05-06T00:20:27;80.50;;;37.57;;
37049;SDS011;22958;51.232;6.826;2023-05-06T00:22:53;87.57;;;40.53;;
37049;SDS011;22958;51.232;6.826;2023-05-06T00:25:18;82.90;;;39.43;;
37049;SDS011;22958;51.232;6.826;2023-05-06T00:27:44;87.47;;;38.47;;
37049;SDS011;22958;51.232;6.826;2023-05-06T00:30:10;95.53;;;41.27;;
37049;SDS011;22958;51.232;6.826;2023-05-06T00:32:36;98.00;;;42.75;;
37049;SDS011;22958;51.232;6.826;2023-05-06T00:35:02;100.57;;;44.77;;
37049;SDS011;22958;51.232;6.826;2023-05-06T00:37:28;128.73;;;43.40;;
37049;SDS011;22958;51.232;6.826;2023-05-06T00:39:54;140.67;;;47.00;;
37049;SDS011;22958;51.232;6.826;2023-05-06T00:42:20;121.13;;;44.95;;
37049;SDS011;22958;51.232;6.826;2023-05-06T00:44:47;121.95;;;44.10;;
37049;SDS011;22958;51.232;6.826;2023-05-06T00:47:13;135.80;;;44.53;;
37049;SDS011;22958;51.232;6.826;2023-05-06T00:49:39;108.28;;;45.08;;
37049;SDS011;22958;51.232;6.826;2023-05-06T00:52:05;137.97;;;42.47;;
37049;SDS011;22958;51.232;6.826;2023-05-06T00:54:32;111.88;;;45.95;;
37049;SDS011;22958;51.232;6.826;2023-05-06T00:56:58;117.35;;;46.03;;
37049;SDS011;22958;51.232;6.826;2023-05-06T00:59:23;157.47;;;45.33;;
37049;SDS011;22958;51.232;6.826;2023-05-06T01:01:49;138.70;;;47.27;;
37049;SDS011;22958;51.232;6.826;2023-05-06T01:06:44;113.30;;;43.78;;
37049;SDS011;22958;51.232;6.826;2023-05-06T01:09:50;214.27;;;44.72;;
37049;SDS011;22958;51.232;6.826;2023-05-06T01:13:04;137.98;;;45.55;;
37049;SDS011;22958;51.232;6.826;2023-05-06T01:15:27;278.10;;;46.67;;
37049;SDS011;22958;51.232;6.826;2023-05-06T01:18:00;221.48;;;46.15;;
37049;SDS011;22958;51.232;6.826;2023-05-06T01:20:31;119.22;;;42.67;;
37049;SDS011;22958;51.232;6.826;2023-05-06T01:22:58;115.55;;;42.97;;
37049;SDS011;22958;51.232;6.826;2023-05-06T01:25:25;243.25;;;44.95;;
37049;SDS011;22958;51.232;6.826;2023-05-06T01:27:51;130.17;;;41.97;;
37049;SDS011;22958;51.232;6.826;2023-05-06T01:30:17;102.80;;;42.00;;
37049;SDS011;22958;51.232;6.826;2023-05-06T01:32:48;115.45;;;42.45;;
37049;SDS011;22958;51.232;6.826;2023-05-06T01:41:04;101.85;;;40.50;;
37049;SDS011;22958;51.232;6.826;2023-05-06T01:43:32;104.38;;;41.58;;
37049;SDS011;22958;51.232;6.826;2023-05-06T01:46:02;104.65;;;43.10;;
37049;SDS011;22958;51.232;6.826;2023-05-06T01:48:29;105.10;;;44.23;;
37049;SDS011;22958;51.232;6.826;2023-05-06T01:50:56;105.53;;;43.53;;
37049;SDS011;22958;51.232;6.826;2023-05-06T01:53:22;102.35;;;42.22;;
37049;SDS011;22958;51.232;6.826;2023-05-06T01:55:47;110.03;;;45.50;;
37049;SDS011;22958;51.232;6.826;2023-05-06T01:58:13;104.37;;;42.50;;
37049;SDS011;22958;51.232;6.826;2023-05-06T02:00:39;111.22;;;42.95;;
37049;SDS011;22958;51.232;6.826;2023-05-06T02:03:05;130.03;;;46.20;;
37049;SDS011;22958;51.232;6.826;2023-05-06T02:05:30;121.23;;;47.30;;
37049;SDS011;22958;51.232;6.826;2023-05-06T02:07:56;129.10;;;47.13;;
37049;SDS011;22958;51.232;6.826;2023-05-06T02:10:22;106.10;;;41.50;;
37049;SDS011;22958;51.232;6.826;2023-05-06T02:12:47;116.07;;;44.13;;
37049;SDS011;22958;51.232;6.826;2023-05-06T02:15:13;102.83;;;41.80;;
37049;SDS011;22958;51.232;6.826;2023-05-06T02:17:39;104.72;;;41.75;;
37049;SDS011;22958;51.232;6.826;2023-05-06T02:20:05;95.37;;;39.43;;
37049;SDS011;22958;51.232;6.826;2023-05-06T02:22:33;89.15;;;39.45;;
37049;SDS011;22958;51.232;6.826;2023-05-06T02:24:59;105.07;;;40.53;;
37049;SDS011;22958;51.232;6.826;2023-05-06T02:27:25;93.67;;;39.97;;
37049;SDS011;22958;51.232;6.826;2023-05-06T02:29:50;87.57;;;40.37;;
37049;SDS011;22958;51.232;6.826;2023-05-06T02:32:16;90.67;;;39.63;;
37049;SDS011;22958;51.232;6.826;2023-05-06T02:34:41;92.07;;;39.43;;
37049;SDS011;22958;51.232;6.826;2023-05-06T02:37:07;102.17;;;40.10;;
37049;SDS011;22958;51.232;6.826;2023-05-06T02:39:32;99.43;;;42.43;;
37049;SDS011;22958;51.232;6.826;2023-05-06T02:41:58;95.60;;;39.90;;
37049;SDS011;22958;51.232;6.826;2023-05-06T02:44:23;94.20;;;39.60;;
37049;SDS011;22958;51.232;6.826;2023-05-06T02:46:49;97.40;;;38.60;;
37049;SDS011;22958;51.232;6.826;2023-05-06T02:49:14;88.13;;;36.43;;
37049;SDS011;22958;51.232;6.826;2023-05-06T02:51:40;101.07;;;40.80;;
37049;SDS011;22958;51.232;6.826;2023-05-06T02:54:05;92.40;;;39.73;;
37049;SDS011;22958;51.232;6.826;2023-05-06T02:56:31;91.10;;;38.77;;
37049;SDS011;22958;51.232;6.826;2023-05-06T02:58:56;89.17;;;39.33;;
37049;SDS011;22958;51.232;6.826;2023-05-06T03:01:22;98.00;;;39.80;;
37049;SDS011;22958;51.232;6.826;2023-05-06T03:03:48;91.13;;;38.77;;
37049;SDS011;22958;51.232;6.826;2023-05-06T03:06:13;131.83;;;43.03;;
37049;SDS011;22958;51.232;6.826;2023-05-06T03:08:39;121.10;;;44.43;;
37049;SDS011;22958;51.232;6.826;2023-05-06T03:11:04;112.13;;;43.67;;
37049;SDS011;22958;51.232;6.826;2023-05-06T03:13:30;122.00;;;42.90;;
37049;SDS011;22958;51.232;6.826;2023-05-06T03:15:55;112.63;;;42.70;;
37049;SDS011;22958;51.232;6.826;2023-05-06T03:18:21;217.23;;;40.20;;
37049;SDS011;22958;51.232;6.826;2023-05-06T03:20:47;193.90;;;41.43;;
37049;SDS011;22958;51.232;6.826;2023-05-06T03:23:12;226.10;;;44.55;;
37049;SDS011;22958;51.232;6.826;2023-05-06T03:25:38;189.57;;;41.07;;
37049;SDS011;22958;51.232;6.826;2023-05-06T03:28:04;176.07;;;41.20;;
37049;SDS011;22958;51.232;6.826;2023-05-06T03:30:29;143.07;;;41.50;;
37049;SDS011;22958;51.232;6.826;2023-05-06T03:32:55;114.57;;;37.73;;
37049;SDS011;22958;51.232;6.826;2023-05-06T03:35:21;116.00;;;41.65;;
37049;SDS011;22958;51.232;6.826;2023-05-06T03:37:47;121.30;;;40.83;;
37049;SDS011;22958;51.232;6.826;2023-05-06T03:40:12;190.70;;;40.77;;
37049;SDS011;22958;51.232;6.826;2023-05-06T03:42:38;104.57;;;39.60;;
37049;SDS011;22958;51.232;6.826;2023-05-06T03:45:04;127.83;;;36.33;;
37049;SDS011;22958;51.232;6.826;2023-05-06T03:47:31;118.57;;;36.38;;
37049;SDS011;22958;51.232;6.826;2023-05-06T03:49:56;98.57;;;35.93;;
37049;SDS011;22958;51.232;6.826;2023-05-06T03:52:22;107.70;;;36.70;;
37049;SDS011;22958;51.232;6.826;2023-05-06T03:54:47;78.93;;;35.20;;
37049;SDS011;22958;51.232;6.826;2023-05-06T03:57:13;83.13;;;35.87;;
37049;SDS011;22958;51.232;6.826;2023-05-06T03:59:39;103.43;;;35.40;;
37049;SDS011;22958;51.232;6.826;2023-05-06T04:02:04;77.17;;;33.67;;
37049;SDS011;22958;51.232;6.826;2023-05-06T04:04:30;108.70;;;37.03;;
37049;SDS011;22958;51.232;6.826;2023-05-06T04:06:55;73.03;;;33.00;;
37049;SDS011;22958;51.232;6.826;2023-05-06T04:09:21;80.00;;;32.70;;
37049;SDS011;22958;51.232;6.826;2023-05-06T04:11:46;80.07;;;31.70;;
37049;SDS011;22958;51.232;6.826;2023-05-06T04:14:12;74.00;;;33.57;;
37049;SDS011;22958;51.232;6.826;2023-05-06T04:16:37;75.20;;;32.40;;
37049;SDS011;22958;51.232;6.826;2023-05-06T04:19:03;66.10;;;29.90;;
37049;SDS011;22958;51.232;6.826;2023-05-06T04:21:28;67.07;;;31.57;;
37049;SDS011;22958;51.232;6.826;2023-05-06T04:23:55;64.53;;;31.25;;
37049;SDS011;22958;51.232;6.826;2023-05-06T04:26:20;67.50;;;31.17;;
37049;SDS011;22958;51.232;6.826;2023-05-06T04:28:46;59.47;;;27.83;;
37049;SDS011;22958;51.232;6.826;2023-05-06T04:31:11;62.10;;;30.60;;
37049;SDS011;22958;51.232;6.826;2023-05-06T04:33:38;63.92;;;29.70;;
37049;SDS011;22958;51.232;6.826;2023-05-06T04:36:04;66.00;;;29.60;;
37049;SDS011;22958;51.232;6.826;2023-05-06T04:38:30;64.10;;;30.15;;
37049;SDS011;22958;51.232;6.826;2023-05-06T04:40:56;65.32;;;29.50;;
37049;SDS011;22958;51.232;6.826;2023-05-06T04:43:24;65.63;;;30.70;;
37049;SDS011;22958;51.232;6.826;2023-05-06T04:45:51;66.60;;;31.17;;
37049;SDS011;22958;51.232;6.826;2023-05-06T04:48:18;78.68;;;32.85;;
37049;SDS011;22958;51.232;6.826;2023-05-06T04:50:46;72.90;;;32.40;;
37049;SDS011;22958;51.232;6.826;2023-05-06T04:53:12;69.63;;;32.33;;
37049;SDS011;22958;51.232;6.826;2023-05-06T04:55:38;66.72;;;31.75;;
37049;SDS011;22958;51.232;6.826;2023-05-06T04:58:04;66.70;;;30.87;;
37049;SDS011;22958;51.232;6.826;2023-05-06T05:00:29;64.60;;;30.60;;
37049;SDS011;22958;51.232;6.826;2023-05-06T05:02:55;64.67;;;31.17;;
37049;SDS011;22958;51.232;6.826;2023-05-06T05:05:20;70.03;;;32.37;;
37049;SDS011;22958;51.232;6.826;2023-05-06T05:07:46;74.17;;;31.93;;
37049;SDS011;22958;51.232;6.826;2023-05-06T05:10:11;74.30;;;34.40;;
37049;SDS011;22958;51.232;6.826;2023-05-06T05:12:37;73.23;;;32.07;;
37049;SDS011;22958;51.232;6.826;2023-05-06T05:15:03;73.70;;;32.17;;
37049;SDS011;22958;51.232;6.826;2023-05-06T05:17:29;76.50;;;33.60;;
37049;SDS011;22958;51.232;6.826;2023-05-06T05:19:54;75.80;;;34.47;;
37049;SDS011;22958;51.232;6.826;2023-05-06T05:22:20;75.37;;;33.60;;
37049;SDS011;22958;51.232;6.826;2023-05-06T05:24:45;77.37;;;32.47;;
37049;SDS011;22958;51.232;6.826;2023-05-06T05:27:11;79.90;;;34.37;;
37049;SDS011;22958;51.232;6.826;2023-05-06T05:29:36;81.53;;;34.20;;
37049;SDS011;22958;51.232;6.826;2023-05-06T05:32:02;70.03;;;32.10;;
37049;SDS011;22958;51.232;6.826;2023-05-06T05:34:28;69.57;;;32.17;;
37049;SDS011;22958;51.232;6.826;2023-05-06T05:36:53;66.93;;;30.83;;
37049;SDS011;22958;51.232;6.826;2023-05-06T05:39:19;67.83;;;31.77;;
37049;SDS011;22958;51.232;6.826;2023-05-06T05:41:44;61.53;;;29.53;;
37049;SDS011;22958;51.232;6.826;2023-05-06T05:44:10;67.83;;;32.40;;
37049;SDS011;22958;51.232;6.826;2023-05-06T05:46:35;65.20;;;31.07;;
37049;SDS011;22958;51.232;6.826;2023-05-06T05:49:01;60.77;;;29.77;;
37049;SDS011;22958;51.232;6.826;2023-05-06T05:51:26;60.53;;;29.47;;
37049;SDS011;22958;51.232;6.826;2023-05-06T05:53:52;56.83;;;31.27;;
37049;SDS011;22958;51.232;6.826;2023-05-06T05:56:17;60.50;;;30.17;;
37049;SDS011;22958;51.232;6.826;2023-05-06T05:58:43;60.07;;;31.57;;
37049;SDS011;22958;51.232;6.826;2023-05-06T06:01:08;60.27;;;30.80;;
37049;SDS011;22958;51.232;6.826;2023-05-06T06:03:34;63.63;;;31.53;;
37049;SDS011;22958;51.232;6.826;2023-05-06T06:06:00;60.28;;;31.23;;
37049;SDS011;22958;51.232;6.826;2023-05-06T06:08:26;58.80;;;30.47;;
37049;SDS011;22958;51.232;6.826;2023-05-06T06:10:53;54.17;;;29.42;;
37049;SDS011;22958;51.232;6.826;2023-05-06T06:13:19;58.37;;;31.07;;
37049;SDS011;22958;51.232;6.826;2023-05-06T06:15:44;53.73;;;29.50;;
37049;SDS011;22958;51.232;6.826;2023-05-06T06:18:10;57.87;;;30.53;;
37049;SDS011;22958;51.232;6.826;2023-05-06T06:20:36;48.45;;;28.52;;
37049;SDS011;22958;51.232;6.826;2023-05-06T06:23:02;49.60;;;28.13;;
37049;SDS011;22958;51.232;6.826;2023-05-06T06:25:27;46.87;;;27.17;;
37049;SDS011;22958;51.232;6.826;2023-05-06T06:27:53;51.83;;;27.90;;
37049;SDS011;22958;51.232;6.826;2023-05-06T06:30:19;41.25;;;25.05;;
37049;SDS011;22958;51.232;6.826;2023-05-06T06:32:48;43.90;;;25.07;;
37049;SDS011;22958;51.232;6.826;2023-05-06T06:35:15;40.22;;;24.00;;
37049;SDS011;22958;51.232;6.826;2023-05-06T06:37:40;42.73;;;23.20;;
37049;SDS011;22958;51.232;6.826;2023-05-06T06:40:06;37.03;;;23.37;;
37049;SDS011;22958;51.232;6.826;2023-05-06T06:42:32;39.72;;;22.50;;
37049;SDS011;22958;51.232;6.826;2023-05-06T06:44:58;34.93;;;21.23;;
37049;SDS011;22958;51.232;6.826;2023-05-06T06:47:23;39.10;;;21.53;;
37049;SDS011;22958;51.232;6.826;2023-05-06T06:49:49;33.23;;;20.27;;
37049;SDS011;22958;51.232;6.826;2023-05-06T06:52:14;34.43;;;21.37;;
37049;SDS011;22958;51.232;6.826;2023-05-06T06:54:40;37.23;;;21.80;;
37049;SDS011;22958;51.232;6.826;2023-05-06T06:57:05;37.67;;;21.73;;
37049;SDS011;22958;51.232;6.826;2023-05-06T06:59:31;30.87;;;20.27;;
37049;SDS011;22958;51.232;6.826;2023-05-06T07:01:56;35.07;;;20.33;;
37049;SDS011;22958;51.232;6.826;2023-05-06T07:04:22;32.90;;;20.33;;
37049;SDS011;22958;51.232;6.826;2023-05-06T07:06:49;35.30;;;21.45;;
37049;SDS011;22958;51.232;6.826;2023-05-06T07:09:15;31.87;;;21.40;;
37049;SDS011;22958;51.232;6.826;2023-05-06T07:11:40;34.93;;;21.03;;
37049;SDS011;22958;51.232;6.826;2023-05-06T07:14:06;29.60;;;19.33;;
37049;SDS011;22958;51.232;6.826;2023-05-06T07:16:32;34.40;;;19.55;;
37049;SDS011;22958;51.232;6.826;2023-05-06T07:18:58;33.03;;;18.43;;
37049;SDS011;22958;51.232;6.826;2023-05-06T07:21:25;26.23;;;16.63;;
37049;SDS011;22958;51.232;6.826;2023-05-06T07:23:51;29.40;;;18.67;;
37049;SDS011;22958;51.232;6.826;2023-05-06T07:26:16;27.37;;;17.23;;
37049;SDS011;22958;51.232;6.826;2023-05-06T07:28:42;24.73;;;16.83;;
37049;SDS011;22958;51.232;6.826;2023-05-06T07:31:08;25.57;;;14.93;;
37049;SDS011;22958;51.232;6.826;2023-05-06T07:33:34;25.75;;;16.02;;
37049;SDS011;22958;51.232;6.826;2023-05-06T07:36:00;23.57;;;15.00;;
37049;SDS011;22958;51.232;6.826;2023-05-06T07:38:25;23.17;;;14.63;;
37049;SDS011;22958;51.232;6.826;2023-05-06T07:40:51;25.43;;;14.40;;
37049;SDS011;22958;51.232;6.826;2023-05-06T07:43:17;18.57;;;12.90;;
37049;SDS011;22958;51.232;6.826;2023-05-06T07:45:42;25.43;;;14.90;;
37049;SDS011;22958;51.232;6.826;2023-05-06T07:48:08;19.20;;;12.33;;
37049;SDS011;22958;51.232;6.826;2023-05-06T07:50:34;23.70;;;13.77;;
37049;SDS011;22958;51.232;6.826;2023-05-06T07:52:59;20.23;;;12.20;;
37049;SDS011;22958;51.232;6.826;2023-05-06T07:55:25;23.90;;;12.05;;
37049;SDS011;22958;51.232;6.826;2023-05-06T07:57:51;19.67;;;12.18;;
37049;SDS011;22958;51.232;6.826;2023-05-06T08:00:17;20.17;;;11.60;;
37049;SDS011;22958;51.232;6.826;2023-05-06T08:02:43;20.23;;;9.63;;
37049;SDS011;22958;51.232;6.826;2023-05-06T08:05:09;14.43;;;9.27;;
37049;SDS011;22958;51.232;6.826;2023-05-06T08:07:35;16.20;;;10.93;;
37049;SDS011;22958;51.232;6.826;2023-05-06T08:10:01;16.15;;;9.15;;
37049;SDS011;22958;51.232;6.826;2023-05-06T08:12:26;25.57;;;10.33;;
37049;SDS011;22958;51.232;6.826;2023-05-06T08:14:52;17.80;;;9.37;;
37049;SDS011;22958;51.232;6.826;2023-05-06T08:19:44;31.25;;;12.82;;
37049;SDS011;22958;51.232;6.826;2023-05-06T08:22:10;27.27;;;12.87;;
37049;SDS011;22958;51.232;6.826;2023-05-06T08:24:36;26.70;;;12.57;;
37049;SDS011;22958;51.232;6.826;2023-05-06T08:27:01;24.77;;;13.90;;
37049;SDS011;22958;51.232;6.826;2023-05-06T08:29:27;23.33;;;11.50;;
37049;SDS011;22958;51.232;6.826;2023-05-06T08:31:53;21.47;;;12.10;;
37049;SDS011;22958;51.232;6.826;2023-05-06T08:34:18;13.67;;;7.37;;
37049;SDS011;22958;51.232;6.826;2023-05-06T08:39:11;21.42;;;7.28;;
37049;SDS011;22958;51.232;6.826;2023-05-06T08:41:38;11.63;;;7.25;;
37049;SDS011;22958;51.232;6.826;2023-05-06T08:44:04;10.75;;;7.18;;
37049;SDS011;22958;51.232;6.826;2023-05-06T08:48:57;12.90;;;6.57;;
37049;SDS011;22958;51.232;6.826;2023-05-06T08:51:24;13.07;;;6.95;;
37049;SDS011;22958;51.232;6.826;2023-05-06T08:53:52;15.77;;;7.50;;
37049;SDS011;22958;51.232;6.826;2023-05-06T08:56:20;11.63;;;6.35;;
37049;SDS011;22958;51.232;6.826;2023-05-06T08:58:48;12.50;;;7.80;;
37049;SDS011;22958;51.232;6.826;2023-05-06T09:01:16;19.48;;;12.73;;
37049;SDS011;22958;51.232;6.826;2023-05-06T09:03:41;14.87;;;10.33;;
37049;SDS011;22958;51.232;6.826;2023-05-06T09:06:08;14.35;;;8.98;;
37049;SDS011;22958;51.232;6.826;2023-05-06T09:08:34;11.98;;;8.35;;
37049;SDS011;22958;51.232;6.826;2023-05-06T09:11:00;12.27;;;8.18;;
37049;SDS011;22958;51.232;6.826;2023-05-06T09:13:26;18.50;;;10.40;;
37049;SDS011;22958;51.232;6.826;2023-05-06T09:15:52;15.80;;;9.37;;
37049;SDS011;22958;51.232;6.826;2023-05-06T09:18:18;12.00;;;8.07;;
37049;SDS011;22958;51.232;6.826;2023-05-06T09:20:46;12.88;;;7.95;;
37049;SDS011;22958;51.232;6.826;2023-05-06T09:23:13;15.38;;;9.00;;
37049;SDS011;22958;51.232;6.826;2023-05-06T09:25:40;12.52;;;8.00;;
37049;SDS011;22958;51.232;6.826;2023-05-06T09:30:33;12.45;;;8.20;;
37049;SDS011;22958;51.232;6.826;2023-05-06T09:33:05;17.25;;;8.75;;
37049;SDS011;22958;51.232;6.826;2023-05-06T09:35:35;18.60;;;9.17;;
37049;SDS011;22958;51.232;6.826;2023-05-06T09:38:02;9.63;;;6.80;;
37049;SDS011;22958;51.232;6.826;2023-05-06T09:40:27;11.47;;;7.23;;
37049;SDS011;22958;51.232;6.826;2023-05-06T09:42:54;13.95;;;7.82;;
37049;SDS011;22958;51.232;6.826;2023-05-06T09:47:46;7.90;;;5.38;;
37049;SDS011;22958;51.232;6.826;2023-05-06T09:50:13;8.50;;;5.72;;
37049;SDS011;22958;51.232;6.826;2023-05-06T09:52:43;12.40;;;5.65;;
37049;SDS011;22958;51.232;6.826;2023-05-06T09:55:10;8.00;;;3.78;;
37049;SDS011;22958;51.232;6.826;2023-05-06T09:57:36;7.70;;;3.58;;
37049;SDS011;22958;51.232;6.826;2023-05-06T10:00:02;7.72;;;4.13;;
37049;SDS011;22958;51.232;6.826;2023-05-06T10:02:31;9.15;;;3.60;;
37049;SDS011;22958;51.232;6.826;2023-05-06T10:04:57;5.43;;;3.13;;
37049;SDS011;22958;51.232;6.826;2023-05-06T10:07:23;5.85;;;2.50;;
37049;SDS011;22958;51.232;6.826;2023-05-06T10:09:52;5.60;;;3.47;;
37049;SDS011;22958;51.232;6.826;2023-05-06T10:12:20;5.90;;;3.10;;
37049;SDS011;22958;51.232;6.826;2023-05-06T10:14:46;4.63;;;2.50;;
37049;SDS011;22958;51.232;6.826;2023-05-06T10:17:12;6.07;;;3.13;;
37049;SDS011;22958;51.232;6.826;2023-05-06T10:19:42;5.65;;;3.10;;
37049;SDS011;22958;51.232;6.826;2023-05-06T10:27:52;6.43;;;3.30;;
37049;SDS011;22958;51.232;6.826;2023-05-06T10:30:17;9.33;;;3.03;;
37049;SDS011;22958;51.232;6.826;2023-05-06T10:32:44;5.20;;;3.00;;
37049;SDS011;22958;51.232;6.826;2023-05-06T10:35:21;5.30;;;3.17;;
37049;SDS011;22958;51.232;6.826;2023-05-06T10:38:52;5.50;;;2.95;;
37049;SDS011;22958;51.232;6.826;2023-05-06T10:40:59;10.98;;;3.30;;
37049;SDS011;22958;51.232;6.826;2023-05-06T10:43:29;8.57;;;2.92;;
37049;SDS011;22958;51.232;6.826;2023-05-06T10:45:57;4.70;;;2.75;;
37049;SDS011;22958;51.232;6.826;2023-05-06T10:50:49;6.82;;;2.60;;
37049;SDS011;22958;51.232;6.826;2023-05-06T10:53:14;5.40;;;2.57;;
37049;SDS011;22958;51.232;6.826;2023-05-06T10:55:40;5.30;;;2.00;;
37049;SDS011;22958;51.232;6.826;2023-05-06T10:58:11;4.80;;;2.27;;
37049;SDS011;22958;51.232;6.826;2023-05-06T11:00:41;6.72;;;2.10;;
37049;SDS011;22958;51.232;6.826;2023-05-06T11:03:18;8.00;;;2.60;;
37049;SDS011;22958;51.232;6.826;2023-05-06T11:05:50;7.47;;;3.50;;
37049;SDS011;22958;51.232;6.826;2023-05-06T11:08:23;6.00;;;2.90;;
37049;SDS011;22958;51.232;6.826;2023-05-06T11:10:49;6.75;;;2.42;;
37049;SDS011;22958;51.232;6.826;2023-05-06T11:13:19;7.40;;;3.28;;
37049;SDS011;22958;51.232;6.826;2023-05-06T11:15:47;6.60;;;2.90;;
37049;SDS011;22958;51.232;6.826;2023-05-06T11:26:11;6.78;;;3.28;;
37049;SDS011;22958;51.232;6.826;2023-05-06T11:28:37;5.95;;;1.95;;
37049;SDS011;22958;51.232;6.826;2023-05-06T11:33:32;4.35;;;1.65;;
37049;SDS011;22958;51.232;6.826;2023-05-06T11:36:01;7.30;;;1.35;;
37049;SDS011;22958;51.232;6.826;2023-05-06T11:38:40;6.47;;;1.40;;
37049;SDS011;22958;51.232;6.826;2023-05-06T11:41:10;6.78;;;1.20;;
37049;SDS011;22958;51.232;6.826;2023-05-06T11:43:37;5.22;;;1.42;;
37049;SDS011;22958;51.232;6.826;2023-05-06T11:46:03;3.00;;;1.20;;
37049;SDS011;22958;51.232;6.826;2023-05-06T11:48:29;4.97;;;1.52;;
37049;SDS011;22958;51.232;6.826;2023-05-06T11:50:55;3.45;;;1.30;;
37049;SDS011;22958;51.232;6.826;2023-05-06T11:53:21;6.95;;;2.03;;
37049;SDS011;22958;51.232;6.826;2023-05-06T11:55:48;3.20;;;1.55;;
37049;SDS011;22958;51.232;6.826;2023-05-06T11:58:17;4.72;;;2.13;;
37049;SDS011;22958;51.232;6.826;2023-05-06T12:00:59;6.68;;;2.20;;
37049;SDS011;22958;51.232;6.826;2023-05-06T12:03:27;6.75;;;2.05;;
37049;SDS011;22958;51.232;6.826;2023-05-06T12:05:53;6.55;;;2.50;;
37049;SDS011;22958;51.232;6.826;2023-05-06T12:08:21;5.25;;;2.60;;
37049;SDS011;22958;51.232;6.826;2023-05-06T12:10:48;5.85;;;2.40;;
37049;SDS011;22958;51.232;6.826;2023-05-06T12:13:15;7.97;;;2.20;;
37049;SDS011;22958;51.232;6.826;2023-05-06T12:15:42;7.30;;;2.30;;
37049;SDS011;22958;51.232;6.826;2023-05-06T12:18:08;7.63;;;2.33;;
37049;SDS011;22958;51.232;6.826;2023-05-06T12:20:34;6.72;;;2.10;;
37049;SDS011;22958;51.232;6.826;2023-05-06T12:23:04;6.28;;;2.10;;
37049;SDS011;22958;51.232;6.826;2023-05-06T12:25:30;6.68;;;1.65;;
37049;SDS011;22958;51.232;6.826;2023-05-06T12:27:56;5.35;;;1.95;;
37049;SDS011;22958;51.232;6.826;2023-05-06T12:30:31;7.65;;;1.98;;
37049;SDS011;22958;51.232;6.826;2023-05-06T12:32:58;4.63;;;1.43;;
37049;SDS011;22958;51.232;6.826;2023-05-06T12:35:25;6.45;;;1.83;;
37049;SDS011;22958;51.232;6.826;2023-05-06T12:37:56;8.00;;;1.75;;
37049;SDS011;22958;51.232;6.826;2023-05-06T12:40:31;6.55;;;1.95;;
37049;SDS011;22958;51.232;6.826;2023-05-06T12:45:22;5.00;;;1.27;;
37049;SDS011;22958;51.232;6.826;2023-05-06T12:50:30;5.05;;;2.00;;
37049;SDS011;22958;51.232;6.826;2023-05-06T12:53:06;4.15;;;1.25;;
37049;SDS011;22958;51.232;6.826;2023-05-06T12:55:34;6.30;;;1.10;;
37049;SDS011;22958;51.232;6.826;2023-05-06T12:58:01;4.85;;;1.40;;
37049;SDS011;22958;51.232;6.826;2023-05-06T13:02:53;4.25;;;1.38;;
37049;SDS011;22958;51.232;6.826;2023-05-06T13:05:18;8.60;;;1.80;;
37049;SDS011;22958;51.232;6.826;2023-05-06T13:07:44;5.65;;;1.55;;
37049;SDS011;22958;51.232;6.826;2023-05-06T13:10:10;8.25;;;1.80;;
37049;SDS011;22958;51.232;6.826;2023-05-06T13:12:35;8.35;;;2.08;;
37049;SDS011;22958;51.232;6.826;2023-05-06T13:15:01;4.47;;;1.85;;
37049;SDS011;22958;51.232;6.826;2023-05-06T13:17:28;5.45;;;1.77;;
37049;SDS011;22958;51.232;6.826;2023-05-06T13:19:54;5.27;;;1.47;;
37049;SDS011;22958;51.232;6.826;2023-05-06T13:22:21;6.88;;;1.70;;
37049;SDS011;22958;51.232;6.826;2023-05-06T13:24:46;4.93;;;1.52;;
37049;SDS011;22958;51.232;6.826;2023-05-06T13:27:12;9.93;;;1.90;;
37049;SDS011;22958;51.232;6.826;2023-05-06T13:29:37;3.47;;;1.33;;
37049;SDS011;22958;51.232;6.826;2023-05-06T13:32:03;7.57;;;2.10;;
37049;SDS011;22958;51.232;6.826;2023-05-06T13:34:29;10.48;;;2.33;;
37049;SDS011;22958;51.232;6.826;2023-05-06T13:36:55;7.70;;;2.27;;
37049;SDS011;22958;51.232;6.826;2023-05-06T13:39:21;6.63;;;2.30;;
37049;SDS011;22958;51.232;6.826;2023-05-06T13:41:47;7.85;;;1.70;;
37049;SDS011;22958;51.232;6.826;2023-05-06T13:44:14;9.50;;;1.85;;
37049;SDS011;22958;51.232;6.826;2023-05-06T13:46:41;4.60;;;1.83;;
37049;SDS011;22958;51.232;6.826;2023-05-06T13:49:06;7.18;;;2.08;;
37049;SDS011;22958;51.232;6.826;2023-05-06T13:51:32;7.43;;;2.00;;
37049;SDS011;22958;51.232;6.826;2023-05-06T13:53:58;2.10;;;1.25;;
37049;SDS011;22958;51.232;6.826;2023-05-06T13:56:24;6.88;;;1.52;;
37049;SDS011;22958;51.232;6.826;2023-05-06T13:58:50;6.78;;;1.88;;
37049;SDS011;22958;51.232;6.826;2023-05-06T14:01:17;7.18;;;1.42;;
37049;SDS011;22958;51.232;6.826;2023-05-06T14:03:46;6.53;;;1.90;;
37049;SDS011;22958;51.232;6.826;2023-05-06T14:06:12;4.38;;;1.73;;
37049;SDS011;22958;51.232;6.826;2023-05-06T14:08:37;6.53;;;2.03;;
37049;SDS011;22958;51.232;6.826;2023-05-06T14:11:03;6.33;;;2.00;;
37049;SDS011;22958;51.232;6.826;2023-05-06T14:13:30;4.37;;;1.60;;
37049;SDS011;22958;51.232;6.826;2023-05-06T14:15:56;5.47;;;1.65;;
37049;SDS011;22958;51.232;6.826;2023-05-06T14:18:21;6.47;;;1.75;;
37049;SDS011;22958;51.232;6.826;2023-05-06T14:20:47;4.83;;;1.40;;
37049;SDS011;22958;51.232;6.826;2023-05-06T14:23:12;6.10;;;1.90;;
37049;SDS011;22958;51.232;6.826;2023-05-06T14:25:38;7.07;;;1.73;;
37049;SDS011;22958;51.232;6.826;2023-05-06T14:28:04;5.63;;;1.63;;
37049;SDS011;22958;51.232;6.826;2023-05-06T14:30:30;5.57;;;1.42;;
37049;SDS011;22958;51.232;6.826;2023-05-06T14:32:56;5.00;;;1.38;;
37049;SDS011;22958;51.232;6.826;2023-05-06T14:35:22;3.95;;;1.35;;
37049;SDS011;22958;51.232;6.826;2023-05-06T14:37:48;8.53;;;2.77;;
37049;SDS011;22958;51.232;6.826;2023-05-06T14:40:14;4.70;;;1.50;;
37049;SDS011;22958;51.232;6.826;2023-05-06T14:42:39;6.25;;;1.80;;
37049;SDS011;22958;51.232;6.826;2023-05-06T14:45:05;5.07;;;1.60;;
37049;SDS011;22958;51.232;6.826;2023-05-06T14:47:31;5.40;;;1.98;;
37049;SDS011;22958;51.232;6.826;2023-05-06T14:49:58;4.97;;;1.67;;
37049;SDS011;22958;51.232;6.826;2023-05-06T14:52:23;5.47;;;2.00;;
37049;SDS011;22958;51.232;6.826;2023-05-06T14:54:49;4.00;;;1.80;;
37049;SDS011;22958;51.232;6.826;2023-05-06T14:57:15;5.73;;;1.70;;
37049;SDS011;22958;51.232;6.826;2023-05-06T14:59:40;8.60;;;2.00;;
37049;SDS011;22958;51.232;6.826;2023-05-06T15:02:06;3.33;;;1.40;;
37049;SDS011;22958;51.232;6.826;2023-05-06T15:04:34;10.70;;;2.00;;
37049;SDS011;22958;51.232;6.826;2023-05-06T15:07:00;6.05;;;1.92;;
37049;SDS011;22958;51.232;6.826;2023-05-06T15:09:26;6.70;;;2.13;;
37049;SDS011;22958;51.232;6.826;2023-05-06T15:11:52;5.33;;;1.77;;